Terminal Aerodrome Forecast
Issued by NWS Wakefield, VA

Home | Current Version | Previous Version | Text Only | Print | Product List | Glossary On
Versions: 1 2 3 4 5 6 7 8 9 10 11 12 13 14 15 16 17 18 19 20 21 22
655
FTUS41 KAKQ 200539
TAFECG
TAF
KECG 200539Z 2006/2106 24004KT P6SM SKC
     FM200900 VRB03KT 4SM BR SKC
     FM201300 06007KT P6SM SCT040
     FM201900 10008KT P6SM SCT050=

USA.gov is the U.S. government's official web portal to all federal, state and local government web resources and services.